sensor_id;sensor_type;location;lat;lon;timestamp;temperature;humidity
216;HTU21D;45701;48.81287245;9.14186865;2022-08-19T00:01:56;21.37;64.95
216;HTU21D;45701;48.81287245;9.14186865;2022-08-19T00:04:27;21.31;64.96
216;HTU21D;45701;48.81287245;9.14186865;2022-08-19T00:06:54;21.33;65.00
216;HTU21D;45701;48.81287245;9.14186865;2022-08-19T00:09:22;21.35;64.72
216;HTU21D;45701;48.81287245;9.14186865;2022-08-19T00:11:51;21.32;64.82
216;HTU21D;45701;48.81287245;9.14186865;2022-08-19T00:14:19;21.39;64.55
216;HTU21D;45701;48.81287245;9.14186865;2022-08-19T00:16:49;21.39;64.72
216;HTU21D;45701;48.81287245;9.14186865;2022-08-19T00:19:16;21.34;64.85
216;HTU21D;45701;48.81287245;9.14186865;2022-08-19T00:21:43;21.35;64.68
216;HTU21D;45701;48.81287245;9.14186865;2022-08-19T00:24:13;21.28;64.95
216;HTU21D;45701;48.81287245;9.14186865;2022-08-19T00:26:40;21.25;65.17
216;HTU21D;45701;48.81287245;9.14186865;2022-08-19T00:29:09;21.27;65.24
216;HTU21D;45701;48.81287245;9.14186865;2022-08-19T00:31:36;21.32;64.88
216;HTU21D;45701;48.81287245;9.14186865;2022-08-19T00:34:04;21.23;65.24
216;HTU21D;45701;48.81287245;9.14186865;2022-08-19T00:36:30;21.22;65.33
216;HTU21D;45701;48.81287245;9.14186865;2022-08-19T00:38:57;21.24;65.14
216;HTU21D;45701;48.81287245;9.14186865;2022-08-19T00:41:25;21.22;65.27
216;HTU21D;45701;48.81287245;9.14186865;2022-08-19T00:44:00;21.14;65.56
216;HTU21D;45701;48.81287245;9.14186865;2022-08-19T00:46:27;21.23;65.18
216;HTU21D;45701;48.81287245;9.14186865;2022-08-19T00:48:54;21.13;65.53
216;HTU21D;45701;48.81287245;9.14186865;2022-08-19T00:51:24;21.16;65.55
216;HTU21D;45701;48.81287245;9.14186865;2022-08-19T00:53:52;21.20;65.29
216;HTU21D;45701;48.81287245;9.14186865;2022-08-19T00:56:20;21.27;64.97
216;HTU21D;45701;48.81287245;9.14186865;2022-08-19T00:58:47;21.20;65.22
216;HTU21D;45701;48.81287245;9.14186865;2022-08-19T01:01:14;21.23;65.31
216;HTU21D;45701;48.81287245;9.14186865;2022-08-19T01:03:41;21.37;64.68
216;HTU21D;45701;48.81287245;9.14186865;2022-08-19T01:06:08;21.29;65.04
216;HTU21D;45701;48.81287245;9.14186865;2022-08-19T01:08:36;21.31;65.22
216;HTU21D;45701;48.81287245;9.14186865;2022-08-19T01:11:03;21.32;65.01
216;HTU21D;45701;48.81287245;9.14186865;2022-08-19T01:13:36;21.27;65.14
216;HTU21D;45701;48.81287245;9.14186865;2022-08-19T01:16:05;21.23;65.43
216;HTU21D;45701;48.81287245;9.14186865;2022-08-19T01:18:36;21.27;65.24
216;HTU21D;45701;48.81287245;9.14186865;2022-08-19T01:21:08;21.25;65.37
216;HTU21D;45701;48.81287245;9.14186865;2022-08-19T01:23:37;21.27;65.43
216;HTU21D;45701;48.81287245;9.14186865;2022-08-19T01:26:12;21.28;65.33
216;HTU21D;45701;48.81287245;9.14186865;2022-08-19T01:28:40;21.32;65.27
216;HTU21D;45701;48.81287245;9.14186865;2022-08-19T01:31:10;21.39;64.95
216;HTU21D;45701;48.81287245;9.14186865;2022-08-19T01:33:37;21.42;64.70
216;HTU21D;45701;48.81287245;9.14186865;2022-08-19T01:36:06;21.24;65.46
216;HTU21D;45701;48.81287245;9.14186865;2022-08-19T01:38:38;21.16;65.85
216;HTU21D;45701;48.81287245;9.14186865;2022-08-19T01:41:05;21.17;65.76
216;HTU21D;45701;48.81287245;9.14186865;2022-08-19T01:43:32;21.28;65.43
216;HTU21D;45701;48.81287245;9.14186865;2022-08-19T01:45:59;21.17;66.04
216;HTU21D;45701;48.81287245;9.14186865;2022-08-19T01:48:26;21.27;65.55
216;HTU21D;45701;48.81287245;9.14186865;2022-08-19T01:50:55;21.35;65.30
216;HTU21D;45701;48.81287245;9.14186865;2022-08-19T01:53:22;21.30;65.45
216;HTU21D;45701;48.81287245;9.14186865;2022-08-19T01:55:50;21.36;65.24
216;HTU21D;45701;48.81287245;9.14186865;2022-08-19T01:58:19;21.37;65.24
216;HTU21D;45701;48.81287245;9.14186865;2022-08-19T02:00:47;21.21;65.90
216;HTU21D;45701;48.81287245;9.14186865;2022-08-19T02:03:14;21.33;65.46
216;HTU21D;45701;48.81287245;9.14186865;2022-08-19T02:05:42;21.25;65.82
216;HTU21D;45701;48.81287245;9.14186865;2022-08-19T02:08:10;21.16;66.20
216;HTU21D;45701;48.81287245;9.14186865;2022-08-19T02:10:39;21.20;66.09
216;HTU21D;45701;48.81287245;9.14186865;2022-08-19T02:13:08;21.14;66.41
216;HTU21D;45701;48.81287245;9.14186865;2022-08-19T02:15:35;21.08;66.78
216;HTU21D;45701;48.81287245;9.14186865;2022-08-19T02:18:02;21.04;67.07
216;HTU21D;45701;48.81287245;9.14186865;2022-08-19T02:20:28;21.09;66.83
216;HTU21D;45701;48.81287245;9.14186865;2022-08-19T02:22:55;21.29;66.29
216;HTU21D;45701;48.81287245;9.14186865;2022-08-19T02:25:22;21.28;65.95
216;HTU21D;45701;48.81287245;9.14186865;2022-08-19T02:27:48;21.13;66.90
216;HTU21D;45701;48.81287245;9.14186865;2022-08-19T02:30:17;20.96;67.36
216;HTU21D;45701;48.81287245;9.14186865;2022-08-19T02:32:44;21.16;66.62
216;HTU21D;45701;48.81287245;9.14186865;2022-08-19T02:35:11;21.17;66.46
216;HTU21D;45701;48.81287245;9.14186865;2022-08-19T02:37:38;21.25;66.24
216;HTU21D;45701;48.81287245;9.14186865;2022-08-19T02:40:21;21.25;66.30
216;HTU21D;45701;48.81287245;9.14186865;2022-08-19T02:42:49;21.21;66.30
216;HTU21D;45701;48.81287245;9.14186865;2022-08-19T02:45:17;21.15;66.71
216;HTU21D;45701;48.81287245;9.14186865;2022-08-19T02:47:44;21.05;67.07
216;HTU21D;45701;48.81287245;9.14186865;2022-08-19T02:50:11;20.98;67.68
216;HTU21D;45701;48.81287245;9.14186865;2022-08-19T02:52:38;20.98;67.45
216;HTU21D;45701;48.81287245;9.14186865;2022-08-19T02:55:05;20.75;68.26
216;HTU21D;45701;48.81287245;9.14186865;2022-08-19T02:57:32;20.92;67.80
216;HTU21D;45701;48.81287245;9.14186865;2022-08-19T02:59:59;20.75;68.50
216;HTU21D;45701;48.81287245;9.14186865;2022-08-19T03:02:28;20.77;68.37
216;HTU21D;45701;48.81287245;9.14186865;2022-08-19T03:04:55;20.76;68.67
216;HTU21D;45701;48.81287245;9.14186865;2022-08-19T03:07:22;20.83;68.79
216;HTU21D;45701;48.81287245;9.14186865;2022-08-19T03:09:49;20.77;69.39
216;HTU21D;45701;48.81287245;9.14186865;2022-08-19T03:12:15;20.79;69.33
216;HTU21D;45701;48.81287245;9.14186865;2022-08-19T03:14:42;20.72;69.43
216;HTU21D;45701;48.81287245;9.14186865;2022-08-19T03:17:09;20.64;69.78
216;HTU21D;45701;48.81287245;9.14186865;2022-08-19T03:19:37;20.55;70.01
216;HTU21D;45701;48.81287245;9.14186865;2022-08-19T03:22:04;20.58;69.94
216;HTU21D;45701;48.81287245;9.14186865;2022-08-19T03:24:31;20.49;70.61
216;HTU21D;45701;48.81287245;9.14186865;2022-08-19T03:26:58;20.60;70.68
216;HTU21D;45701;48.81287245;9.14186865;2022-08-19T03:29:25;20.66;71.15
216;HTU21D;45701;48.81287245;9.14186865;2022-08-19T03:31:52;20.58;71.42
216;HTU21D;45701;48.81287245;9.14186865;2022-08-19T03:34:23;20.57;71.36
216;HTU21D;45701;48.81287245;9.14186865;2022-08-19T03:36:53;20.55;71.80
216;HTU21D;45701;48.81287245;9.14186865;2022-08-19T03:39:20;20.56;72.01
216;HTU21D;45701;48.81287245;9.14186865;2022-08-19T03:41:49;20.37;72.54
216;HTU21D;45701;48.81287245;9.14186865;2022-08-19T03:44:19;20.24;72.24
216;HTU21D;45701;48.81287245;9.14186865;2022-08-19T03:46:48;20.24;73.14
216;HTU21D;45701;48.81287245;9.14186865;2022-08-19T03:49:15;20.36;72.28
216;HTU21D;45701;48.81287245;9.14186865;2022-08-19T03:51:43;20.31;72.15
216;HTU21D;45701;48.81287245;9.14186865;2022-08-19T03:54:12;20.28;72.84
216;HTU21D;45701;48.81287245;9.14186865;2022-08-19T03:56:42;20.32;72.50
216;HTU21D;45701;48.81287245;9.14186865;2022-08-19T03:59:11;20.35;71.86
216;HTU21D;45701;48.81287245;9.14186865;2022-08-19T04:01:39;20.41;71.26
216;HTU21D;45701;48.81287245;9.14186865;2022-08-19T04:04:06;20.35;71.37
216;HTU21D;45701;48.81287245;9.14186865;2022-08-19T04:06:35;20.36;71.16
216;HTU21D;45701;48.81287245;9.14186865;2022-08-19T04:09:07;20.29;71.30
216;HTU21D;45701;48.81287245;9.14186865;2022-08-19T04:11:41;20.39;71.03
216;HTU21D;45701;48.81287245;9.14186865;2022-08-19T04:14:09;20.35;70.67
216;HTU21D;45701;48.81287245;9.14186865;2022-08-19T04:16:36;20.33;70.89
216;HTU21D;45701;48.81287245;9.14186865;2022-08-19T04:19:05;20.49;69.82
216;HTU21D;45701;48.81287245;9.14186865;2022-08-19T04:21:32;20.31;70.64
216;HTU21D;45701;48.81287245;9.14186865;2022-08-19T04:24:00;20.31;70.55
216;HTU21D;45701;48.81287245;9.14186865;2022-08-19T04:26:29;20.33;70.24
216;HTU21D;45701;48.81287245;9.14186865;2022-08-19T04:28:59;20.30;70.45
216;HTU21D;45701;48.81287245;9.14186865;2022-08-19T04:31:28;20.22;70.85
216;HTU21D;45701;48.81287245;9.14186865;2022-08-19T04:33:57;20.19;70.87
216;HTU21D;45701;48.81287245;9.14186865;2022-08-19T04:36:26;20.20;70.99
216;HTU21D;45701;48.81287245;9.14186865;2022-08-19T04:38:54;20.11;71.42
216;HTU21D;45701;48.81287245;9.14186865;2022-08-19T04:41:21;20.09;71.51
216;HTU21D;45701;48.81287245;9.14186865;2022-08-19T04:44:19;20.14;71.19
216;HTU21D;45701;48.81287245;9.14186865;2022-08-19T04:46:46;20.17;71.08
216;HTU21D;45701;48.81287245;9.14186865;2022-08-19T04:49:14;20.12;71.34
216;HTU21D;45701;48.81287245;9.14186865;2022-08-19T04:51:43;20.04;71.65
216;HTU21D;45701;48.81287245;9.14186865;2022-08-19T04:54:10;20.05;71.62
216;HTU21D;45701;48.81287245;9.14186865;2022-08-19T04:56:38;20.15;71.42
216;HTU21D;45701;48.81287245;9.14186865;2022-08-19T04:59:05;20.24;70.97
216;HTU21D;45701;48.81287245;9.14186865;2022-08-19T05:01:35;20.24;71.03
216;HTU21D;45701;48.81287245;9.14186865;2022-08-19T05:04:03;20.27;70.78
216;HTU21D;45701;48.81287245;9.14186865;2022-08-19T05:06:31;20.15;71.35
216;HTU21D;45701;48.81287245;9.14186865;2022-08-19T05:08:59;20.14;71.60
216;HTU21D;45701;48.81287245;9.14186865;2022-08-19T05:11:28;20.17;71.48
216;HTU21D;45701;48.81287245;9.14186865;2022-08-19T05:13:56;20.34;70.64
216;HTU21D;45701;48.81287245;9.14186865;2022-08-19T05:16:24;20.16;71.55
216;HTU21D;45701;48.81287245;9.14186865;2022-08-19T05:18:52;20.20;71.61
216;HTU21D;45701;48.81287245;9.14186865;2022-08-19T05:21:38;20.25;71.48
216;HTU21D;45701;48.81287245;9.14186865;2022-08-19T05:24:23;20.26;71.50
216;HTU21D;45701;48.81287245;9.14186865;2022-08-19T05:26:52;20.24;71.80
216;HTU21D;45701;48.81287245;9.14186865;2022-08-19T05:29:23;20.16;72.03
216;HTU21D;45701;48.81287245;9.14186865;2022-08-19T05:31:51;20.12;72.44
216;HTU21D;45701;48.81287245;9.14186865;2022-08-19T05:34:20;20.27;71.70
216;HTU21D;45701;48.81287245;9.14186865;2022-08-19T05:36:48;20.41;71.04
216;HTU21D;45701;48.81287245;9.14186865;2022-08-19T05:39:17;20.40;70.92
216;HTU21D;45701;48.81287245;9.14186865;2022-08-19T05:41:45;20.43;71.00
216;HTU21D;45701;48.81287245;9.14186865;2022-08-19T05:44:14;20.42;70.81
216;HTU21D;45701;48.81287245;9.14186865;2022-08-19T05:46:43;20.30;71.38
216;HTU21D;45701;48.81287245;9.14186865;2022-08-19T05:49:12;20.25;71.80
216;HTU21D;45701;48.81287245;9.14186865;2022-08-19T05:51:41;20.33;71.47
216;HTU21D;45701;48.81287245;9.14186865;2022-08-19T05:54:08;20.48;70.94
216;HTU21D;45701;48.81287245;9.14186865;2022-08-19T05:56:36;20.51;70.41
216;HTU21D;45701;48.81287245;9.14186865;2022-08-19T05:59:04;20.36;71.00
216;HTU21D;45701;48.81287245;9.14186865;2022-08-19T06:01:37;20.36;70.84
216;HTU21D;45701;48.81287245;9.14186865;2022-08-19T06:04:04;20.27;71.42
216;HTU21D;45701;48.81287245;9.14186865;2022-08-19T06:06:32;20.21;71.55
216;HTU21D;45701;48.81287245;9.14186865;2022-08-19T06:09:00;20.18;71.85
216;HTU21D;45701;48.81287245;9.14186865;2022-08-19T06:11:33;20.29;71.40
216;HTU21D;45701;48.81287245;9.14186865;2022-08-19T06:14:02;20.34;71.13
216;HTU21D;45701;48.81287245;9.14186865;2022-08-19T06:16:29;20.41;70.93
216;HTU21D;45701;48.81287245;9.14186865;2022-08-19T06:19:00;20.31;71.30
216;HTU21D;45701;48.81287245;9.14186865;2022-08-19T06:21:28;20.35;71.26
216;HTU21D;45701;48.81287245;9.14186865;2022-08-19T06:23:56;20.28;71.61
216;HTU21D;45701;48.81287245;9.14186865;2022-08-19T06:26:25;20.37;71.23
216;HTU21D;45701;48.81287245;9.14186865;2022-08-19T06:28:52;20.35;71.50
216;HTU21D;45701;48.81287245;9.14186865;2022-08-19T06:31:22;20.36;71.38
216;HTU21D;45701;48.81287245;9.14186865;2022-08-19T06:33:49;20.33;71.61
216;HTU21D;45701;48.81287245;9.14186865;2022-08-19T06:36:18;20.26;72.06
216;HTU21D;45701;48.81287245;9.14186865;2022-08-19T06:38:45;20.27;72.19
216;HTU21D;45701;48.81287245;9.14186865;2022-08-19T06:41:12;20.22;72.40
216;HTU21D;45701;48.81287245;9.14186865;2022-08-19T06:43:40;20.39;72.27
216;HTU21D;45701;48.81287245;9.14186865;2022-08-19T06:46:13;20.37;72.69
216;HTU21D;45701;48.81287245;9.14186865;2022-08-19T06:48:41;20.34;74.09
216;HTU21D;45701;48.81287245;9.14186865;2022-08-19T06:51:08;20.33;75.40
216;HTU21D;45701;48.81287245;9.14186865;2022-08-19T06:53:34;20.35;76.12
216;HTU21D;45701;48.81287245;9.14186865;2022-08-19T06:56:01;20.26;76.52
216;HTU21D;45701;48.81287245;9.14186865;2022-08-19T06:58:28;20.35;75.59
216;HTU21D;45701;48.81287245;9.14186865;2022-08-19T07:00:59;20.35;74.60
216;HTU21D;45701;48.81287245;9.14186865;2022-08-19T07:03:29;20.16;76.09
216;HTU21D;45701;48.81287245;9.14186865;2022-08-19T07:05:58;20.14;75.68
216;HTU21D;45701;48.81287245;9.14186865;2022-08-19T07:08:28;20.10;76.69
216;HTU21D;45701;48.81287245;9.14186865;2022-08-19T07:10:55;19.99;76.48
216;HTU21D;45701;48.81287245;9.14186865;2022-08-19T07:13:22;20.04;76.78
216;HTU21D;45701;48.81287245;9.14186865;2022-08-19T07:15:49;19.94;75.41
216;HTU21D;45701;48.81287245;9.14186865;2022-08-19T07:18:18;19.83;75.60
216;HTU21D;45701;48.81287245;9.14186865;2022-08-19T07:20:46;19.95;75.73
216;HTU21D;45701;48.81287245;9.14186865;2022-08-19T07:23:13;19.92;74.68
216;HTU21D;45701;48.81287245;9.14186865;2022-08-19T07:25:40;19.88;75.31
216;HTU21D;45701;48.81287245;9.14186865;2022-08-19T07:28:07;19.91;75.60
216;HTU21D;45701;48.81287245;9.14186865;2022-08-19T07:30:36;19.97;75.19
216;HTU21D;45701;48.81287245;9.14186865;2022-08-19T07:33:04;20.13;74.30
216;HTU21D;45701;48.81287245;9.14186865;2022-08-19T07:35:32;20.18;73.44
216;HTU21D;45701;48.81287245;9.14186865;2022-08-19T07:37:59;20.10;73.97
216;HTU21D;45701;48.81287245;9.14186865;2022-08-19T07:40:28;20.04;74.32
216;HTU21D;45701;48.81287245;9.14186865;2022-08-19T07:42:55;20.14;75.38
216;HTU21D;45701;48.81287245;9.14186865;2022-08-19T07:45:22;20.15;74.15
216;HTU21D;45701;48.81287245;9.14186865;2022-08-19T07:47:48;20.26;73.73
216;HTU21D;45701;48.81287245;9.14186865;2022-08-19T07:50:17;20.25;72.99
216;HTU21D;45701;48.81287245;9.14186865;2022-08-19T07:52:46;20.18;73.86
216;HTU21D;45701;48.81287245;9.14186865;2022-08-19T07:55:17;20.18;73.21
216;HTU21D;45701;48.81287245;9.14186865;2022-08-19T07:57:44;20.15;73.74
216;HTU21D;45701;48.81287245;9.14186865;2022-08-19T08:00:11;20.16;73.93
216;HTU21D;45701;48.81287245;9.14186865;2022-08-19T08:02:38;20.11;73.61
216;HTU21D;45701;48.81287245;9.14186865;2022-08-19T08:05:08;20.15;72.99
216;HTU21D;45701;48.81287245;9.14186865;2022-08-19T08:07:54;20.17;73.30
216;HTU21D;45701;48.81287245;9.14186865;2022-08-19T08:10:38;20.19;72.70
216;HTU21D;45701;48.81287245;9.14186865;2022-08-19T08:13:05;20.18;72.54
216;HTU21D;45701;48.81287245;9.14186865;2022-08-19T08:15:32;20.17;72.82
216;HTU21D;45701;48.81287245;9.14186865;2022-08-19T08:17:58;20.25;72.36
216;HTU21D;45701;48.81287245;9.14186865;2022-08-19T08:20:25;20.29;72.12
216;HTU21D;45701;48.81287245;9.14186865;2022-08-19T08:22:53;20.24;72.79
216;HTU21D;45701;48.81287245;9.14186865;2022-08-19T08:25:37;20.28;72.24
216;HTU21D;45701;48.81287245;9.14186865;2022-08-19T08:28:04;20.32;72.24
216;HTU21D;45701;48.81287245;9.14186865;2022-08-19T08:30:34;20.39;71.67
216;HTU21D;45701;48.81287245;9.14186865;2022-08-19T08:33:02;20.31;72.03
216;HTU21D;45701;48.81287245;9.14186865;2022-08-19T08:35:29;20.29;72.13
216;HTU21D;45701;48.81287245;9.14186865;2022-08-19T08:37:57;20.30;72.06
216;HTU21D;45701;48.81287245;9.14186865;2022-08-19T08:40:29;20.32;72.06
216;HTU21D;45701;48.81287245;9.14186865;2022-08-19T08:42:58;20.39;73.68
216;HTU21D;45701;48.81287245;9.14186865;2022-08-19T08:45:31;20.32;74.30
216;HTU21D;45701;48.81287245;9.14186865;2022-08-19T08:48:04;20.22;74.26
216;HTU21D;45701;48.81287245;9.14186865;2022-08-19T08:50:40;20.26;75.76
216;HTU21D;45701;48.81287245;9.14186865;2022-08-19T08:53:17;20.22;75.49
216;HTU21D;45701;48.81287245;9.14186865;2022-08-19T08:55:46;20.19;75.15
216;HTU21D;45701;48.81287245;9.14186865;2022-08-19T08:58:16;20.26;75.54
216;HTU21D;45701;48.81287245;9.14186865;2022-08-19T09:00:47;20.31;75.72
216;HTU21D;45701;48.81287245;9.14186865;2022-08-19T09:03:17;20.33;75.30
216;HTU21D;45701;48.81287245;9.14186865;2022-08-19T09:05:53;20.35;74.84
216;HTU21D;45701;48.81287245;9.14186865;2022-08-19T09:08:30;20.42;75.21
216;HTU21D;45701;48.81287245;9.14186865;2022-08-19T09:11:00;20.47;74.90
216;HTU21D;45701;48.81287245;9.14186865;2022-08-19T09:13:36;20.58;74.10
216;HTU21D;45701;48.81287245;9.14186865;2022-08-19T09:16:07;20.60;73.80
216;HTU21D;45701;48.81287245;9.14186865;2022-08-19T09:18:39;20.61;74.09
216;HTU21D;45701;48.81287245;9.14186865;2022-08-19T09:21:06;20.72;73.85
216;HTU21D;45701;48.81287245;9.14186865;2022-08-19T09:23:35;20.80;73.17
216;HTU21D;45701;48.81287245;9.14186865;2022-08-19T09:26:06;20.85;73.24
216;HTU21D;45701;48.81287245;9.14186865;2022-08-19T09:28:33;20.92;73.70
216;HTU21D;45701;48.81287245;9.14186865;2022-08-19T09:31:00;21.01;72.56
216;HTU21D;45701;48.81287245;9.14186865;2022-08-19T09:33:27;21.03;71.76
216;HTU21D;45701;48.81287245;9.14186865;2022-08-19T09:36:02;21.13;71.81
216;HTU21D;45701;48.81287245;9.14186865;2022-08-19T09:38:29;21.18;71.10
216;HTU21D;45701;48.81287245;9.14186865;2022-08-19T09:41:02;21.23;71.76
216;HTU21D;45701;48.81287245;9.14186865;2022-08-19T09:43:30;21.27;71.13
216;HTU21D;45701;48.81287245;9.14186865;2022-08-19T09:45:56;21.32;71.25
216;HTU21D;45701;48.81287245;9.14186865;2022-08-19T09:48:23;21.38;70.73
216;HTU21D;45701;48.81287245;9.14186865;2022-08-19T09:50:50;21.36;70.53
216;HTU21D;45701;48.81287245;9.14186865;2022-08-19T09:53:17;21.45;70.58
216;HTU21D;45701;48.81287245;9.14186865;2022-08-19T09:55:44;21.33;70.74
216;HTU21D;45701;48.81287245;9.14186865;2022-08-19T09:58:12;21.33;70.48
216;HTU21D;45701;48.81287245;9.14186865;2022-08-19T10:00:38;21.32;70.81
216;HTU21D;45701;48.81287245;9.14186865;2022-08-19T10:03:05;21.29;70.38
216;HTU21D;45701;48.81287245;9.14186865;2022-08-19T10:05:31;21.29;70.40
216;HTU21D;45701;48.81287245;9.14186865;2022-08-19T10:08:18;21.25;70.47
216;HTU21D;45701;48.81287245;9.14186865;2022-08-19T10:10:45;21.38;70.51
216;HTU21D;45701;48.81287245;9.14186865;2022-08-19T10:13:15;21.35;70.18
216;HTU21D;45701;48.81287245;9.14186865;2022-08-19T10:15:43;21.37;70.58
216;HTU21D;45701;48.81287245;9.14186865;2022-08-19T10:18:10;21.50;69.99
216;HTU21D;45701;48.81287245;9.14186865;2022-08-19T10:20:37;21.50;69.43
216;HTU21D;45701;48.81287245;9.14186865;2022-08-19T10:23:04;21.52;69.56
216;HTU21D;45701;48.81287245;9.14186865;2022-08-19T10:25:32;21.58;69.32
216;HTU21D;45701;48.81287245;9.14186865;2022-08-19T10:28:00;21.53;69.06
216;HTU21D;45701;48.81287245;9.14186865;2022-08-19T10:30:28;21.62;69.03
216;HTU21D;45701;48.81287245;9.14186865;2022-08-19T10:32:55;21.69;68.15
216;HTU21D;45701;48.81287245;9.14186865;2022-08-19T10:35:21;21.65;68.39
216;HTU21D;45701;48.81287245;9.14186865;2022-08-19T10:37:50;21.65;68.41
216;HTU21D;45701;48.81287245;9.14186865;2022-08-19T10:40:16;21.74;68.17
216;HTU21D;45701;48.81287245;9.14186865;2022-08-19T10:42:43;21.77;67.45
216;HTU21D;45701;48.81287245;9.14186865;2022-08-19T10:45:10;21.90;66.88
216;HTU21D;45701;48.81287245;9.14186865;2022-08-19T10:47:38;21.88;66.59
216;HTU21D;45701;48.81287245;9.14186865;2022-08-19T10:50:06;21.85;66.62
216;HTU21D;45701;48.81287245;9.14186865;2022-08-19T10:53:03;21.83;66.43
216;HTU21D;45701;48.81287245;9.14186865;2022-08-19T10:55:30;21.84;66.55
216;HTU21D;45701;48.81287245;9.14186865;2022-08-19T10:58:17;21.87;66.38
216;HTU21D;45701;48.81287245;9.14186865;2022-08-19T11:00:51;21.80;66.32
216;HTU21D;45701;48.81287245;9.14186865;2022-08-19T11:03:20;21.88;66.02
216;HTU21D;45701;48.81287245;9.14186865;2022-08-19T11:05:46;21.88;66.49
216;HTU21D;45701;48.81287245;9.14186865;2022-08-19T11:08:14;22.05;65.51
216;HTU21D;45701;48.81287245;9.14186865;2022-08-19T11:10:41;22.16;64.78
216;HTU21D;45701;48.81287245;9.14186865;2022-08-19T11:13:08;22.29;64.25
216;HTU21D;45701;48.81287245;9.14186865;2022-08-19T11:15:34;22.47;63.66
216;HTU21D;45701;48.81287245;9.14186865;2022-08-19T11:18:03;22.49;63.35
216;HTU21D;45701;48.81287245;9.14186865;2022-08-19T11:20:32;22.50;63.66
216;HTU21D;45701;48.81287245;9.14186865;2022-08-19T11:22:58;22.61;63.44
216;HTU21D;45701;48.81287245;9.14186865;2022-08-19T11:25:25;22.67;62.86
216;HTU21D;45701;48.81287245;9.14186865;2022-08-19T11:27:52;22.57;62.47
216;HTU21D;45701;48.81287245;9.14186865;2022-08-19T11:30:18;22.72;63.64
216;HTU21D;45701;48.81287245;9.14186865;2022-08-19T11:32:45;22.82;62.08
216;HTU21D;45701;48.81287245;9.14186865;2022-08-19T11:35:13;22.77;60.89
216;HTU21D;45701;48.81287245;9.14186865;2022-08-19T11:37:41;22.78;62.44
216;HTU21D;45701;48.81287245;9.14186865;2022-08-19T11:40:09;22.84;62.27
216;HTU21D;45701;48.81287245;9.14186865;2022-08-19T11:42:36;22.91;60.70
216;HTU21D;45701;48.81287245;9.14186865;2022-08-19T11:45:20;23.02;61.20
216;HTU21D;45701;48.81287245;9.14186865;2022-08-19T11:47:46;23.02;60.05
216;HTU21D;45701;48.81287245;9.14186865;2022-08-19T11:50:13;23.15;59.65
216;HTU21D;45701;48.81287245;9.14186865;2022-08-19T11:52:42;23.15;59.47
216;HTU21D;45701;48.81287245;9.14186865;2022-08-19T11:55:10;23.17;61.09
216;HTU21D;45701;48.81287245;9.14186865;2022-08-19T11:57:37;23.17;59.69
216;HTU21D;45701;48.81287245;9.14186865;2022-08-19T12:00:07;23.12;60.30
216;HTU21D;45701;48.81287245;9.14186865;2022-08-19T12:02:34;23.01;60.80
216;HTU21D;45701;48.81287245;9.14186865;2022-08-19T12:05:00;23.02;60.31
216;HTU21D;45701;48.81287245;9.14186865;2022-08-19T12:07:28;23.01;61.00
216;HTU21D;45701;48.81287245;9.14186865;2022-08-19T12:09:57;23.09;60.18
216;HTU21D;45701;48.81287245;9.14186865;2022-08-19T12:12:23;23.18;58.74
216;HTU21D;45701;48.81287245;9.14186865;2022-08-19T12:14:51;23.22;58.47
216;HTU21D;45701;48.81287245;9.14186865;2022-08-19T12:17:22;23.28;59.19
216;HTU21D;45701;48.81287245;9.14186865;2022-08-19T12:19:49;23.41;58.98
216;HTU21D;45701;48.81287245;9.14186865;2022-08-19T12:22:15;23.41;59.56
216;HTU21D;45701;48.81287245;9.14186865;2022-08-19T12:24:42;23.29;60.58
216;HTU21D;45701;48.81287245;9.14186865;2022-08-19T12:27:10;23.17;59.61
216;HTU21D;45701;48.81287245;9.14186865;2022-08-19T12:29:37;23.16;59.28
216;HTU21D;45701;48.81287245;9.14186865;2022-08-19T12:32:03;23.07;59.88
216;HTU21D;45701;48.81287245;9.14186865;2022-08-19T12:34:31;23.21;58.95
216;HTU21D;45701;48.81287245;9.14186865;2022-08-19T12:37:03;23.16;59.94
216;HTU21D;45701;48.81287245;9.14186865;2022-08-19T12:39:34;23.10;59.64
216;HTU21D;45701;48.81287245;9.14186865;2022-08-19T12:42:01;23.17;59.17
216;HTU21D;45701;48.81287245;9.14186865;2022-08-19T12:44:29;23.26;57.19
216;HTU21D;45701;48.81287245;9.14186865;2022-08-19T12:46:57;23.29;58.82
216;HTU21D;45701;48.81287245;9.14186865;2022-08-19T12:49:24;23.36;58.22
216;HTU21D;45701;48.81287245;9.14186865;2022-08-19T12:51:51;23.60;57.79
216;HTU21D;45701;48.81287245;9.14186865;2022-08-19T12:54:18;23.66;57.26
216;HTU21D;45701;48.81287245;9.14186865;2022-08-19T12:56:45;23.55;57.13
216;HTU21D;45701;48.81287245;9.14186865;2022-08-19T12:59:15;23.57;57.96
216;HTU21D;45701;48.81287245;9.14186865;2022-08-19T13:01:45;23.67;56.86
216;HTU21D;45701;48.81287245;9.14186865;2022-08-19T13:04:11;23.54;56.68
216;HTU21D;45701;48.81287245;9.14186865;2022-08-19T13:06:38;23.59;56.45
216;HTU21D;45701;48.81287245;9.14186865;2022-08-19T13:09:05;23.49;54.75
216;HTU21D;45701;48.81287245;9.14186865;2022-08-19T13:11:32;23.55;55.72
216;HTU21D;45701;48.81287245;9.14186865;2022-08-19T13:13:59;23.64;56.53
216;HTU21D;45701;48.81287245;9.14186865;2022-08-19T13:16:27;23.45;57.98
216;HTU21D;45701;48.81287245;9.14186865;2022-08-19T13:18:55;23.53;56.07
216;HTU21D;45701;48.81287245;9.14186865;2022-08-19T13:21:25;23.58;59.80
216;HTU21D;45701;48.81287245;9.14186865;2022-08-19T13:23:53;23.31;61.83
216;HTU21D;45701;48.81287245;9.14186865;2022-08-19T13:26:20;23.14;62.59
216;HTU21D;45701;48.81287245;9.14186865;2022-08-19T13:28:47;23.14;62.70
216;HTU21D;45701;48.81287245;9.14186865;2022-08-19T13:31:34;23.25;62.11
216;HTU21D;45701;48.81287245;9.14186865;2022-08-19T13:34:27;23.51;61.24
216;HTU21D;45701;48.81287245;9.14186865;2022-08-19T13:36:54;23.41;62.21
216;HTU21D;45701;48.81287245;9.14186865;2022-08-19T13:39:21;23.12;64.41
216;HTU21D;45701;48.81287245;9.14186865;2022-08-19T13:41:49;22.94;66.23
216;HTU21D;45701;48.81287245;9.14186865;2022-08-19T13:44:16;22.98;67.66